Time;durP1;ratioP1;P1;durP2;ratioP2;P2;SDS_P1;SDS_P2;PMS_P1;PMS_P2;Temp;Humidity;BMP_temperature;BMP_pressure;BME280_temperature;BME280_humidity;BME280_pressure;Samples;Min_cycle;Max_cycle;Signal;HPM_P1;HPM_P2
2022/01/11 00:02:04;;;;;;;29.17;12.83;;;1.30;99.90;;;;;;5112383;28;20270;-55
2022/01/11 00:04:32;;;;;;;43.70;19.97;;;1.30;99.90;;;;;;5112558;28;20288;-55
2022/01/11 00:07:03;;;;;;;35.90;17.33;;;1.30;99.90;;;;;;5111725;28;20212;-55
2022/01/11 00:09:39;;;;;;;35.87;16.53;;;1.30;99.90;;;;;;5115480;27;20216;-55
2022/01/11 00:12:11;;;;;;;42.77;19.40;;;1.20;99.90;;;;;;5112256;28;20591;-55
2022/01/11 00:14:39;;;;;;;12.00;6.20;;;1.20;99.90;;;;;;5111925;28;20237;-56
2022/01/11 00:17:08;;;;;;;8.20;3.47;;;1.20;99.90;;;;;;5111943;28;20204;-54
2022/01/11 00:19:36;;;;;;;12.77;5.30;;;1.20;99.90;;;;;;5111436;28;20276;-54
2022/01/11 00:22:07;;;;;;;16.77;7.93;;;1.20;99.90;;;;;;5112148;28;20281;-55
2022/01/11 00:24:36;;;;;;;7.10;3.20;;;1.20;99.90;;;;;;5111088;28;20733;-54
2022/01/11 00:27:07;;;;;;;7.63;4.57;;;1.20;99.90;;;;;;5111778;28;20196;-55
2022/01/11 00:29:40;;;;;;;13.33;6.63;;;1.10;99.90;;;;;;5110923;28;20626;-56
2022/01/11 00:32:13;;;;;;;24.13;12.47;;;1.20;99.90;;;;;;5111850;28;20196;-54
2022/01/11 00:34:48;;;;;;;43.37;22.40;;;1.10;99.90;;;;;;5111583;28;20677;-55
2022/01/11 00:37:17;;;;;;;31.90;17.93;;;1.10;99.90;;;;;;5111651;28;20264;-54
2022/01/11 00:39:45;;;;;;;19.93;10.50;;;1.10;99.90;;;;;;5111903;28;20228;-54
2022/01/11 00:42:14;;;;;;;14.33;9.30;;;1.10;99.90;;;;;;5111389;28;20299;-55
2022/01/11 00:44:44;;;;;;;12.50;6.97;;;1.10;99.90;;;;;;5110380;28;20926;-55
2022/01/11 00:47:12;;;;;;;14.87;8.53;;;1.00;99.90;;;;;;5129994;28;20625;-55
2022/01/11 00:49:41;;;;;;;15.70;8.43;;;1.10;99.90;;;;;;5102790;28;20596;-55
2022/01/11 00:52:09;;;;;;;9.47;5.87;;;1.10;99.90;;;;;;5096735;28;20208;-55
2022/01/11 00:54:38;;;;;;;15.43;8.97;;;1.00;99.90;;;;;;5111849;28;20203;-55
2022/01/11 00:57:06;;;;;;;10.17;7.07;;;1.00;99.90;;;;;;5111370;28;20203;-55
2022/01/11 00:59:34;;;;;;;12.50;6.53;;;1.00;99.90;;;;;;5101952;28;20229;-55
2022/01/11 01:02:04;;;;;;;11.60;6.43;;;1.00;99.90;;;;;;5090884;28;20227;-53
2022/01/11 01:04:32;;;;;;;11.67;5.10;;;1.00;99.90;;;;;;5090616;28;20625;-55
2022/01/11 01:07:01;;;;;;;16.03;5.03;;;0.90;99.90;;;;;;5091260;28;20258;-55
2022/01/11 01:09:37;;;;;;;7.83;3.97;;;0.90;99.90;;;;;;5098977;28;20223;-55
2022/01/11 01:12:06;;;;;;;12.50;3.80;;;0.90;99.90;;;;;;5111827;28;20204;-55
2022/01/11 01:14:34;;;;;;;7.37;3.37;;;0.90;99.90;;;;;;5111436;28;20201;-56
2022/01/11 01:17:04;;;;;;;9.83;3.97;;;0.90;99.90;;;;;;5111339;28;20254;-56
2022/01/11 01:19:32;;;;;;;9.27;3.30;;;0.90;99.90;;;;;;5111424;28;20229;-54
2022/01/11 01:22:00;;;;;;;10.77;3.80;;;0.80;99.90;;;;;;5110663;28;20292;-54
2022/01/11 01:24:28;;;;;;;9.13;4.87;;;0.80;99.90;;;;;;5123421;28;20288;-55
2022/01/11 01:26:57;;;;;;;9.57;4.37;;;0.80;99.90;;;;;;5104013;27;20236;-55
2022/01/11 01:29:25;;;;;;;14.13;8.27;;;0.80;99.90;;;;;;5090193;28;20277;-53
2022/01/11 01:31:53;;;;;;;12.67;6.60;;;0.70;99.90;;;;;;5091179;28;20574;-56
2022/01/11 01:34:23;;;;;;;10.90;6.00;;;0.70;99.90;;;;;;5091281;28;20254;-55
2022/01/11 01:36:51;;;;;;;19.07;7.83;;;0.70;99.90;;;;;;5113413;28;20203;-56
2022/01/11 01:39:19;;;;;;;16.97;9.57;;;0.70;99.90;;;;;;5133259;27;20272;-55
2022/01/11 01:41:48;;;;;;;17.70;9.77;;;0.70;99.90;;;;;;5135604;27;20222;-55
2022/01/11 01:44:16;;;;;;;10.63;4.47;;;0.70;99.90;;;;;;5134831;27;20288;-54
2022/01/11 01:46:44;;;;;;;15.93;8.43;;;0.70;99.90;;;;;;5120973;27;20203;-55
2022/01/11 01:49:17;;;;;;;12.63;6.50;;;0.70;99.90;;;;;;5114145;27;20266;-55
2022/01/11 01:51:48;;;;;;;10.07;4.83;;;0.60;99.90;;;;;;5119826;27;20211;-55
2022/01/11 01:54:16;;;;;;;13.90;6.10;;;0.60;99.90;;;;;;5116060;27;20249;-54
2022/01/11 01:56:45;;;;;;;10.83;4.93;;;0.60;99.90;;;;;;5114247;28;20261;-54
2022/01/11 01:59:13;;;;;;;14.10;6.30;;;0.60;99.90;;;;;;5114399;28;20248;-55
2022/01/11 02:01:45;;;;;;;13.77;6.20;;;0.60;99.90;;;;;;5114208;28;20220;-56
2022/01/11 02:04:16;;;;;;;8.73;4.77;;;0.60;99.90;;;;;;5114481;28;20243;-54
2022/01/11 02:06:46;;;;;;;11.60;4.43;;;0.60;99.90;;;;;;5127050;27;20203;-55
2022/01/11 02:09:16;;;;;;;6.60;3.47;;;0.60;99.90;;;;;;5134736;27;20272;-55
2022/01/11 02:11:44;;;;;;;10.37;4.07;;;0.60;99.90;;;;;;5114538;28;20195;-54
2022/01/11 02:14:12;;;;;;;9.57;3.90;;;0.60;99.90;;;;;;5113549;28;20588;-54
2022/01/11 02:16:40;;;;;;;7.67;3.60;;;0.60;99.90;;;;;;5114543;28;20559;-54
2022/01/11 02:19:09;;;;;;;7.37;3.63;;;0.60;99.90;;;;;;5113764;28;20727;-54
2022/01/11 02:21:39;;;;;;;6.93;3.50;;;0.50;99.90;;;;;;5134328;27;20283;-55
2022/01/11 02:24:07;;;;;;;10.33;5.03;;;0.50;99.90;;;;;;5116349;27;20237;-53
2022/01/11 02:26:35;;;;;;;10.83;4.93;;;0.50;99.90;;;;;;5113919;28;20204;-55
2022/01/11 02:29:03;;;;;;;7.50;3.53;;;0.50;99.90;;;;;;5113555;28;20251;-56
2022/01/11 02:31:37;;;;;;;6.73;3.50;;;0.40;99.90;;;;;;5114054;28;20276;-54
2022/01/11 02:34:05;;;;;;;7.40;3.30;;;0.40;99.90;;;;;;5120282;27;20659;-55
2022/01/11 02:36:36;;;;;;;7.20;3.30;;;0.40;99.90;;;;;;5114829;27;20232;-55
2022/01/11 02:39:06;;;;;;;6.83;3.93;;;0.40;99.90;;;;;;5092739;28;20221;-56
2022/01/11 02:41:34;;;;;;;6.80;3.10;;;0.40;99.90;;;;;;5093416;28;20256;-55
2022/01/11 02:44:02;;;;;;;6.57;3.13;;;0.40;99.90;;;;;;5096425;28;20236;-54
2022/01/11 02:46:31;;;;;;;6.63;2.90;;;0.30;99.90;;;;;;5125902;27;20203;-54
2022/01/11 02:48:59;;;;;;;7.47;3.30;;;0.30;99.90;;;;;;5127404;27;20376;-54
2022/01/11 02:51:27;;;;;;;7.43;3.03;;;0.30;99.90;;;;;;5113749;28;20200;-54
2022/01/11 02:53:57;;;;;;;7.60;3.50;;;0.30;99.90;;;;;;5113213;28;20621;-54
2022/01/11 02:56:27;;;;;;;9.07;3.80;;;0.30;99.90;;;;;;5113546;28;20258;-54
2022/01/11 02:58:55;;;;;;;8.13;2.93;;;0.30;99.90;;;;;;5109067;28;20287;-54
2022/01/11 03:01:23;;;;;;;6.90;3.27;;;0.30;99.90;;;;;;5093285;28;20232;-56
2022/01/11 03:03:52;;;;;;;9.83;3.10;;;0.30;99.90;;;;;;5133320;27;20208;-55
2022/01/11 03:06:21;;;;;;;9.67;3.57;;;0.30;99.90;;;;;;5132048;27;20553;-53
2022/01/11 03:08:49;;;;;;;4.30;2.90;;;0.30;99.90;;;;;;5112326;28;20651;-55
2022/01/11 03:11:21;;;;;;;5.47;2.90;;;0.30;99.90;;;;;;5112781;28;20242;-55
2022/01/11 03:13:50;;;;;;;9.40;3.00;;;0.30;99.90;;;;;;5112989;28;20234;-54
2022/01/11 03:16:20;;;;;;;6.77;2.63;;;0.20;99.90;;;;;;5112868;28;20224;-54
2022/01/11 03:18:48;;;;;;;5.47;2.47;;;0.20;99.90;;;;;;5112198;28;20221;-55
2022/01/11 03:21:17;;;;;;;7.07;3.30;;;0.20;99.90;;;;;;5113414;28;20277;-54
2022/01/11 03:23:45;;;;;;;7.00;3.20;;;0.20;99.90;;;;;;5112674;28;20733;-54
2022/01/11 03:26:13;;;;;;;7.13;2.67;;;0.20;99.90;;;;;;5112606;28;20560;-55
2022/01/11 03:28:41;;;;;;;7.63;2.70;;;0.20;99.90;;;;;;5111905;28;20243;-55
2022/01/11 03:31:10;;;;;;;6.50;3.03;;;0.20;99.90;;;;;;5113047;28;20200;-56
2022/01/11 03:33:39;;;;;;;4.57;2.43;;;0.10;99.90;;;;;;5112550;28;20291;-55
2022/01/11 03:36:07;;;;;;;6.20;3.27;;;0.20;99.90;;;;;;5112694;28;20257;-55
2022/01/11 03:38:36;;;;;;;6.97;3.37;;;0.20;99.90;;;;;;5093285;28;20277;-54
2022/01/11 03:41:04;;;;;;;6.73;3.40;;;0.20;99.90;;;;;;5099712;28;20826;-53
2022/01/11 03:43:33;;;;;;;7.27;2.90;;;0.20;99.90;;;;;;5112486;28;20260;-56
2022/01/11 03:46:01;;;;;;;8.67;2.90;;;0.20;99.90;;;;;;5120412;27;20262;-56
2022/01/11 03:48:31;;;;;;;5.53;2.60;;;0.20;99.90;;;;;;5132840;27;20227;-55
2022/01/11 03:50:59;;;;;;;6.07;2.83;;;0.10;99.90;;;;;;5132668;27;20247;-55
2022/01/11 03:53:32;;;;;;;7.97;2.77;;;0.20;99.90;;;;;;5121362;27;20726;-54
2022/01/11 03:56:21;;;;;;;8.83;2.83;;;0.20;99.90;;;;;;5112992;28;20240;-55
2022/01/11 03:58:50;;;;;;;6.70;2.80;;;0.20;99.90;;;;;;5112178;28;20224;-54
2022/01/11 04:01:18;;;;;;;7.10;2.70;;;0.30;99.90;;;;;;5112348;28;20239;-55
2022/01/11 04:03:49;;;;;;;8.63;2.83;;;0.40;99.90;;;;;;5112733;28;20212;-54
2022/01/11 04:06:18;;;;;;;5.43;3.00;;;0.40;99.90;;;;;;5112778;28;20215;-55
2022/01/11 04:08:47;;;;;;;9.13;3.10;;;0.40;99.90;;;;;;5111964;28;20221;-56
2022/01/11 04:11:16;;;;;;;6.93;2.83;;;0.50;99.90;;;;;;5112862;28;20204;-54
2022/01/11 04:13:44;;;;;;;5.77;2.63;;;0.50;99.90;;;;;;5113319;28;20257;-56
2022/01/11 04:16:13;;;;;;;7.10;2.77;;;0.50;99.90;;;;;;5113289;28;20234;-55
2022/01/11 04:18:41;;;;;;;7.77;3.20;;;0.60;99.90;;;;;;5112518;28;20348;-55
2022/01/11 04:21:10;;;;;;;8.47;2.90;;;0.60;99.90;;;;;;5111509;28;20205;-55
2022/01/11 04:23:39;;;;;;;7.90;2.80;;;0.60;99.90;;;;;;5111909;28;20295;-55
2022/01/11 04:26:08;;;;;;;5.97;2.90;;;0.60;99.90;;;;;;5111865;28;20597;-56
2022/01/11 04:28:36;;;;;;;4.83;2.73;;;0.70;99.90;;;;;;5111269;28;20258;-55
2022/01/11 04:31:05;;;;;;;7.90;3.00;;;0.70;99.90;;;;;;5111446;28;20252;-56
2022/01/11 04:33:34;;;;;;;7.53;3.00;;;0.80;99.90;;;;;;5111586;28;20204;-54
2022/01/11 04:36:03;;;;;;;10.37;3.23;;;0.80;99.90;;;;;;5112020;28;20235;-54
2022/01/11 04:38:32;;;;;;;6.77;3.27;;;0.80;99.90;;;;;;5111015;28;20257;-56
2022/01/11 04:41:01;;;;;;;8.10;3.20;;;0.80;99.90;;;;;;5111721;28;20245;-54
2022/01/11 04:43:30;;;;;;;5.37;2.57;;;0.90;99.90;;;;;;5111321;28;20262;-55
2022/01/11 04:45:58;;;;;;;6.87;3.30;;;1.00;99.90;;;;;;5119960;27;20291;-55
2022/01/11 04:48:29;;;;;;;8.57;4.03;;;1.00;99.90;;;;;;5132036;27;20235;-55
2022/01/11 04:50:57;;;;;;;6.10;2.70;;;1.10;99.90;;;;;;5132075;27;20316;-55
2022/01/11 04:53:25;;;;;;;6.23;3.30;;;1.10;99.90;;;;;;5131800;28;20242;-55
2022/01/11 04:55:55;;;;;;;7.17;3.00;;;1.10;99.90;;;;;;5132358;28;20231;-56
2022/01/11 04:58:23;;;;;;;8.60;3.33;;;1.10;99.90;;;;;;5131516;28;20401;-57
2022/01/11 05:00:52;;;;;;;9.50;3.33;;;1.10;99.90;;;;;;5092558;27;20262;-54
2022/01/11 05:03:20;;;;;;;5.40;2.60;;;1.20;99.90;;;;;;5122488;28;20276;-54
2022/01/11 05:05:48;;;;;;;5.87;2.37;;;1.20;99.90;;;;;;5131893;27;20239;-55
2022/01/11 05:08:16;;;;;;;8.77;2.77;;;1.30;99.90;;;;;;5128078;27;20256;-55
2022/01/11 05:10:44;;;;;;;4.47;2.33;;;1.30;99.90;;;;;;5113850;28;20199;-55
2022/01/11 05:13:16;;;;;;;4.97;2.70;;;1.30;99.90;;;;;;5095098;28;20207;-54
2022/01/11 05:15:44;;;;;;;6.67;3.20;;;1.30;99.90;;;;;;5095171;28;20194;-54
2022/01/11 05:18:13;;;;;;;5.47;2.50;;;1.40;99.90;;;;;;5094969;28;20757;-56
2022/01/11 05:20:41;;;;;;;8.23;2.90;;;1.40;99.90;;;;;;5097407;28;20680;-55
2022/01/11 05:23:13;;;;;;;7.23;3.10;;;1.40;99.90;;;;;;5114877;28;20231;-55
2022/01/11 05:25:42;;;;;;;6.63;3.03;;;1.40;99.90;;;;;;5115403;28;20205;-55
2022/01/11 05:28:11;;;;;;;7.30;4.13;;;1.50;99.90;;;;;;5114797;28;20228;-55
2022/01/11 05:30:40;;;;;;;6.47;3.43;;;1.50;99.90;;;;;;5115657;28;20255;-55
2022/01/11 05:33:08;;;;;;;7.00;3.27;;;1.50;99.90;;;;;;5114934;28;20261;-55
2022/01/11 05:35:36;;;;;;;6.07;2.97;;;1.50;99.90;;;;;;5106542;28;20240;-55
2022/01/11 05:38:10;;;;;;;8.17;3.37;;;1.50;99.90;;;;;;5110851;28;20230;-55
2022/01/11 05:40:39;;;;;;;7.43;3.40;;;1.50;99.90;;;;;;5115622;28;20228;-55
2022/01/11 05:43:07;;;;;;;5.47;3.43;;;1.60;99.90;;;;;;5114282;28;20219;-55
2022/01/11 05:45:35;;;;;;;6.20;3.63;;;1.50;99.90;;;;;;5119578;27;20203;-56
2022/01/11 05:48:06;;;;;;;8.97;4.17;;;1.50;99.90;;;;;;5135484;27;20226;-56
2022/01/11 05:50:34;;;;;;;8.23;3.20;;;1.60;99.90;;;;;;5135281;27;20630;-54
2022/01/11 05:53:03;;;;;;;6.73;3.47;;;1.60;99.90;;;;;;5126876;27;20197;-55
2022/01/11 05:55:32;;;;;;;6.13;3.40;;;1.70;99.90;;;;;;5114634;28;20698;-54
2022/01/11 05:58:00;;;;;;;7.07;3.30;;;1.60;99.90;;;;;;5114863;28;20233;-55
2022/01/11 06:00:28;;;;;;;8.17;3.63;;;1.60;99.90;;;;;;5113858;28;20675;-55
2022/01/11 06:02:58;;;;;;;7.90;3.83;;;1.60;99.90;;;;;;5127057;27;20221;-54
2022/01/11 06:05:28;;;;;;;7.40;3.40;;;1.60;99.90;;;;;;5123278;27;20681;-55
2022/01/11 06:07:56;;;;;;;10.90;6.87;;;1.60;99.90;;;;;;5114173;28;20224;-54
2022/01/11 06:10:25;;;;;;;9.23;4.17;;;1.60;99.90;;;;;;5114558;28;20198;-55
2022/01/11 06:12:53;;;;;;;6.83;3.80;;;1.60;99.90;;;;;;5114027;28;20197;-54
2022/01/11 06:15:21;;;;;;;6.20;3.20;;;1.60;99.90;;;;;;5114482;28;20258;-55
2022/01/11 06:17:49;;;;;;;7.50;3.80;;;1.50;99.90;;;;;;5114125;28;20280;-54
2022/01/11 06:20:17;;;;;;;6.87;3.10;;;1.60;99.90;;;;;;5114289;28;20621;-54
2022/01/11 06:22:46;;;;;;;6.53;3.40;;;1.50;99.90;;;;;;5112581;28;20214;-54
2022/01/11 06:25:15;;;;;;;10.93;3.80;;;1.50;99.90;;;;;;5114814;28;20196;-55
2022/01/11 06:27:43;;;;;;;8.03;3.90;;;1.50;99.90;;;;;;5113780;28;20721;-55
2022/01/11 06:30:16;;;;;;;9.83;4.60;;;1.50;99.90;;;;;;5113875;28;20204;-54
2022/01/11 06:32:45;;;;;;;6.37;3.77;;;1.50;99.90;;;;;;5113843;28;20210;-55
2022/01/11 06:35:15;;;;;;;6.60;4.03;;;1.40;99.90;;;;;;5114139;28;20210;-55
2022/01/11 06:37:43;;;;;;;9.07;4.67;;;1.40;99.90;;;;;;5101865;28;20701;-55
2022/01/11 06:40:14;;;;;;;9.93;4.97;;;1.40;99.90;;;;;;5093040;28;20259;-54
2022/01/11 06:42:42;;;;;;;15.17;8.97;;;1.30;99.90;;;;;;5093376;28;20211;-54
2022/01/11 06:45:11;;;;;;;11.30;7.37;;;1.40;99.90;;;;;;5095839;27;20201;-55
2022/01/11 06:47:40;;;;;;;14.53;8.73;;;1.40;99.90;;;;;;5133817;27;20261;-55
2022/01/11 06:50:09;;;;;;;18.30;11.00;;;1.40;99.90;;;;;;5134133;27;20701;-54
2022/01/11 06:52:37;;;;;;;21.27;13.67;;;1.40;99.90;;;;;;5129019;27;20748;-55
2022/01/11 06:55:07;;;;;;;21.90;14.80;;;1.40;99.90;;;;;;5113823;28;20197;-55
2022/01/11 06:57:37;;;;;;;20.10;11.90;;;1.40;99.90;;;;;;5112947;28;20554;-55
2022/01/11 07:00:07;;;;;;;11.20;5.50;;;1.40;99.90;;;;;;5100286;28;20215;-55
2022/01/11 07:02:35;;;;;;;10.10;5.10;;;1.40;99.90;;;;;;5121492;27;20207;-54
2022/01/11 07:05:04;;;;;;;10.00;4.90;;;1.40;99.90;;;;;;5118553;27;20718;-55
2022/01/11 07:07:32;;;;;;;12.00;4.50;;;1.40;99.90;;;;;;5112995;28;20210;-55
2022/01/11 07:10:01;;;;;;;12.03;5.17;;;1.30;99.90;;;;;;5113561;28;20197;-55
2022/01/11 07:12:29;;;;;;;7.17;4.93;;;1.30;99.90;;;;;;5113201;28;20775;-55
2022/01/11 07:14:58;;;;;;;8.97;5.57;;;1.40;99.90;;;;;;5113282;28;20744;-54
2022/01/11 07:17:27;;;;;;;13.63;7.57;;;1.40;99.90;;;;;;5112789;28;20214;-56
2022/01/11 07:19:55;;;;;;;11.43;6.80;;;1.40;99.90;;;;;;5113458;28;20199;-55
2022/01/11 07:22:23;;;;;;;14.43;7.57;;;1.40;99.90;;;;;;5112849;28;20757;-56
2022/01/11 07:24:51;;;;;;;12.33;6.27;;;1.50;99.90;;;;;;5112833;28;20255;-55
2022/01/11 07:27:19;;;;;;;13.70;7.30;;;1.50;99.90;;;;;;5113361;28;20248;-55
2022/01/11 07:29:48;;;;;;;13.27;7.90;;;1.50;99.90;;;;;;5112444;28;20232;-55
2022/01/11 07:32:17;;;;;;;13.13;8.90;;;1.60;99.90;;;;;;5112680;28;20208;-54
2022/01/11 07:34:45;;;;;;;63.37;42.67;;;1.60;99.90;;;;;;5112540;28;20206;-55
2022/01/11 07:37:14;;;;;;;31.00;22.43;;;1.60;99.90;;;;;;5112519;28;20579;-54
2022/01/11 07:39:42;;;;;;;19.00;12.07;;;1.60;99.90;;;;;;5112395;28;20229;-56
2022/01/11 07:42:10;;;;;;;16.30;8.93;;;1.70;99.90;;;;;;5112890;28;20273;-55
2022/01/11 07:44:38;;;;;;;12.10;6.93;;;1.60;99.90;;;;;;5112549;28;20337;-55
2022/01/11 07:47:06;;;;;;;12.63;7.63;;;1.70;99.90;;;;;;5130320;27;20204;-55
2022/01/11 07:49:38;;;;;;;12.03;8.13;;;1.70;99.90;;;;;;5133092;27;20225;-55
2022/01/11 07:52:07;;;;;;;17.50;9.90;;;1.70;99.90;;;;;;5131701;27;20244;-56
2022/01/11 07:54:35;;;;;;;13.80;9.37;;;1.70;99.90;;;;;;5112512;28;20197;-55
2022/01/11 07:57:03;;;;;;;14.07;8.70;;;1.70;99.90;;;;;;5112412;28;20198;-55
2022/01/11 07:59:32;;;;;;;13.73;8.13;;;1.70;99.90;;;;;;5112054;28;20300;-55
2022/01/11 08:02:21;;;;;;;16.30;8.80;;;1.80;99.90;;;;;;5119511;27;20201;-55
2022/01/11 08:04:53;;;;;;;15.60;8.60;;;1.70;99.90;;;;;;5132607;27;20235;-55
2022/01/11 08:07:22;;;;;;;18.90;8.90;;;1.80;99.90;;;;;;5122186;27;20251;-55
2022/01/11 08:09:50;;;;;;;15.53;9.50;;;1.80;99.90;;;;;;5099486;28;20223;-54
2022/01/11 08:12:18;;;;;;;12.57;8.77;;;1.80;99.90;;;;;;5112232;28;20194;-53
2022/01/11 08:14:48;;;;;;;8.30;5.20;;;1.80;99.90;;;;;;5111760;28;20198;-54
2022/01/11 08:17:16;;;;;;;6.37;4.90;;;1.80;99.90;;;;;;5111668;28;20208;-55
2022/01/11 08:19:46;;;;;;;10.27;7.30;;;1.80;99.90;;;;;;5111367;28;20282;-54
2022/01/11 08:22:15;;;;;;;10.50;5.30;;;1.80;99.90;;;;;;5111287;28;20735;-55
2022/01/11 08:24:44;;;;;;;10.30;5.27;;;1.90;99.90;;;;;;5111739;28;20269;-56
2022/01/11 08:27:14;;;;;;;11.53;5.70;;;1.90;99.90;;;;;;5111897;28;20233;-54
2022/01/11 08:29:43;;;;;;;6.60;4.63;;;1.90;99.90;;;;;;5110990;28;20226;-55
2022/01/11 08:32:11;;;;;;;9.23;5.83;;;2.00;99.90;;;;;;5111815;28;20217;-55
2022/01/11 08:34:39;;;;;;;10.47;5.70;;;2.00;99.90;;;;;;5111683;28;20208;-55
2022/01/11 08:37:08;;;;;;;13.10;5.93;;;2.00;99.90;;;;;;5107409;28;20252;-56
2022/01/11 08:39:38;;;;;;;11.07;5.27;;;2.10;99.90;;;;;;5111702;28;20363;-55
2022/01/11 08:42:08;;;;;;;8.87;4.80;;;2.10;99.90;;;;;;5111455;28;20206;-54
2022/01/11 08:44:36;;;;;;;11.67;5.33;;;2.10;99.90;;;;;;5110531;28;20219;-56
2022/01/11 08:47:04;;;;;;;9.60;5.37;;;2.20;99.90;;;;;;5128591;27;20221;-55
2022/01/11 08:49:33;;;;;;;10.20;4.40;;;2.20;99.90;;;;;;5131891;27;20234;-56
2022/01/11 08:52:01;;;;;;;9.37;4.00;;;2.20;99.90;;;;;;5131439;28;20207;-56
2022/01/11 08:54:29;;;;;;;8.90;4.03;;;2.20;99.90;;;;;;5104900;28;20264;-56
2022/01/11 08:56:59;;;;;;;7.03;4.50;;;2.20;99.90;;;;;;5110995;28;20672;-55
2022/01/11 08:59:27;;;;;;;7.13;4.33;;;2.30;99.90;;;;;;5102743;28;20236;-54
2022/01/11 09:02:02;;;;;;;11.83;5.80;;;2.30;99.90;;;;;;5099883;28;20731;-54
2022/01/11 09:04:31;;;;;;;10.37;5.80;;;2.30;99.90;;;;;;5131316;27;20600;-56
2022/01/11 09:06:59;;;;;;;7.77;4.83;;;2.40;99.90;;;;;;5105478;27;20231;-56
2022/01/11 09:09:31;;;;;;;8.70;5.10;;;2.40;99.90;;;;;;5110902;28;20220;-55
2022/01/11 09:12:03;;;;;;;8.23;4.97;;;2.40;99.90;;;;;;5106965;28;20246;-56
2022/01/11 09:14:31;;;;;;;6.73;4.17;;;2.50;99.90;;;;;;5108023;28;20228;-55
2022/01/11 09:17:02;;;;;;;10.33;5.40;;;2.40;99.90;;;;;;5111017;28;20284;-55
2022/01/11 09:19:30;;;;;;;9.73;5.13;;;2.40;99.90;;;;;;5111201;28;20234;-55
2022/01/11 09:22:00;;;;;;;9.80;5.23;;;2.40;99.90;;;;;;5110593;28;20664;-55
2022/01/11 09:24:33;;;;;;;9.33;5.73;;;2.50;99.90;;;;;;5090794;28;20224;-56
2022/01/11 09:27:04;;;;;;;10.00;5.67;;;2.50;99.90;;;;;;5108786;28;20202;-55
2022/01/11 09:29:33;;;;;;;8.73;5.20;;;2.50;99.90;;;;;;5110496;28;20228;-55
2022/01/11 09:32:02;;;;;;;9.63;5.17;;;2.50;99.90;;;;;;5111026;28;20215;-56
2022/01/11 09:34:30;;;;;;;9.33;5.77;;;2.60;99.90;;;;;;5111019;28;20200;-55
2022/01/11 09:36:59;;;;;;;14.20;6.13;;;2.60;99.90;;;;;;5110303;28;20320;-56
2022/01/11 09:39:27;;;;;;;13.30;6.17;;;2.60;99.90;;;;;;5110970;28;20229;-54
2022/01/11 09:42:02;;;;;;;12.57;8.27;;;2.60;99.90;;;;;;5110858;28;20234;-54
2022/01/11 09:44:32;;;;;;;16.60;10.47;;;2.60;99.90;;;;;;5110874;28;20247;-56
2022/01/11 09:47:00;;;;;;;12.97;7.23;;;2.70;99.90;;;;;;5127885;28;20195;-56
2022/01/11 09:49:28;;;;;;;10.33;7.73;;;2.70;99.90;;;;;;5126793;27;20721;-55
2022/01/11 09:51:57;;;;;;;40.37;27.77;;;2.70;99.90;;;;;;5110964;28;20211;-54
2022/01/11 09:54:25;;;;;;;22.03;16.90;;;2.60;99.90;;;;;;5110444;28;20203;-54
2022/01/11 09:56:54;;;;;;;14.57;8.47;;;2.70;99.90;;;;;;5113669;28;20229;-55
2022/01/11 09:59:23;;;;;;;15.87;9.07;;;2.70;99.90;;;;;;5113739;28;20223;-55
2022/01/11 10:01:51;;;;;;;13.00;8.07;;;2.70;99.90;;;;;;5117190;27;20272;-54
2022/01/11 10:04:25;;;;;;;14.07;8.20;;;2.70;99.90;;;;;;5135248;27;20207;-55
2022/01/11 10:06:55;;;;;;;12.90;7.30;;;2.70;99.90;;;;;;5134650;27;20219;-56
2022/01/11 10:09:25;;;;;;;14.77;7.90;;;2.60;99.90;;;;;;5132624;27;20224;-55
2022/01/11 10:11:55;;;;;;;12.03;8.10;;;2.50;99.90;;;;;;5114148;28;20656;-55
2022/01/11 10:14:29;;;;;;;15.53;8.07;;;2.50;99.90;;;;;;5113332;28;20205;-55
2022/01/11 10:17:10;;;;;;;15.37;7.67;;;2.40;99.90;;;;;;5113964;28;20225;-55
2022/01/11 10:19:41;;;;;;;15.50;10.03;;;2.40;99.90;;;;;;5114087;28;20223;-55
2022/01/11 10:22:11;;;;;;;15.87;10.17;;;2.40;99.90;;;;;;5110129;28;20233;-54
2022/01/11 10:24:42;;;;;;;15.93;10.20;;;2.50;99.90;;;;;;5096917;28;20219;-54
2022/01/11 10:27:14;;;;;;;14.30;10.23;;;2.50;99.90;;;;;;5113605;28;20199;-55
2022/01/11 10:29:46;;;;;;;13.63;9.80;;;2.50;99.90;;;;;;5113442;28;20273;-55
2022/01/11 10:32:21;;;;;;;15.60;10.93;;;2.50;99.90;;;;;;5114197;28;20635;-56
2022/01/11 10:34:51;;;;;;;16.47;10.90;;;2.50;99.90;;;;;;5113851;28;20269;-54
2022/01/11 10:37:30;;;;;;;16.87;10.07;;;2.60;99.90;;;;;;5112750;28;20239;-55
2022/01/11 10:40:07;;;;;;;20.57;10.83;;;2.60;99.90;;;;;;5113794;28;20195;-56
2022/01/11 10:42:38;;;;;;;14.63;10.13;;;2.60;99.90;;;;;;5113550;28;20620;-56
2022/01/11 10:45:09;;;;;;;17.33;10.70;;;2.60;99.90;;;;;;5114296;27;20191;-55
2022/01/11 10:47:40;;;;;;;14.80;9.43;;;2.60;99.90;;;;;;5114937;27;20207;-55
2022/01/11 10:50:12;;;;;;;18.27;11.43;;;2.70;99.90;;;;;;5113508;28;20200;-55
2022/01/11 10:52:42;;;;;;;15.00;9.70;;;2.70;99.90;;;;;;5112751;28;20691;-54
2022/01/11 10:55:16;;;;;;;13.70;7.83;;;2.80;99.90;;;;;;5113374;28;20224;-56
2022/01/11 10:57:48;;;;;;;15.27;9.30;;;2.80;99.90;;;;;;5092668;28;20231;-56
2022/01/11 11:00:24;;;;;;;13.67;8.77;;;2.80;99.90;;;;;;5093070;28;20250;-55
2022/01/11 11:03:02;;;;;;;15.73;8.73;;;2.80;99.90;;;;;;5116738;27;20203;-56
2022/01/11 11:05:34;;;;;;;17.33;9.77;;;2.90;99.90;;;;;;5133640;27;20221;-55
2022/01/11 11:08:06;;;;;;;15.00;8.57;;;2.80;99.90;;;;;;5133004;27;21062;-55
2022/01/11 11:10:40;;;;;;;14.10;8.37;;;2.80;99.90;;;;;;5121995;27;20247;-55
2022/01/11 11:13:11;;;;;;;12.83;7.53;;;2.90;99.90;;;;;;5112733;28;20246;-55
2022/01/11 11:15:41;;;;;;;12.53;8.07;;;2.90;99.90;;;;;;5113251;28;20583;-57
2022/01/11 11:18:28;;;;;;;12.83;9.50;;;3.00;99.90;;;;;;5112527;28;20260;-56
2022/01/11 11:20:58;;;;;;;12.53;7.70;;;2.90;99.90;;;;;;5112210;28;20247;-54
2022/01/11 11:23:26;;;;;;;12.90;7.80;;;2.90;99.90;;;;;;5094498;28;20243;-55
2022/01/11 11:25:58;;;;;;;18.07;8.80;;;3.00;99.90;;;;;;5101794;28;20266;-55
2022/01/11 11:28:26;;;;;;;15.73;7.37;;;3.00;99.90;;;;;;5112159;28;20227;-55
2022/01/11 11:30:57;;;;;;;12.87;7.10;;;3.10;99.90;;;;;;5112646;28;20244;-55
2022/01/11 11:33:26;;;;;;;15.10;7.43;;;3.10;99.90;;;;;;5112911;28;20199;-56
2022/01/11 11:35:54;;;;;;;12.07;7.83;;;3.20;99.90;;;;;;5101202;28;20197;-57
2022/01/11 11:38:29;;;;;;;11.03;7.50;;;3.20;99.90;;;;;;5112539;28;20261;-56
2022/01/11 11:41:00;;;;;;;14.63;8.47;;;3.20;99.90;;;;;;5112445;28;20199;-54
2022/01/11 11:43:29;;;;;;;12.00;7.83;;;3.20;99.90;;;;;;5112240;28;20278;-56
2022/01/11 11:45:58;;;;;;;15.13;8.73;;;3.30;99.90;;;;;;5112205;28;20223;-55
2022/01/11 11:48:28;;;;;;;14.07;8.00;;;3.30;99.90;;;;;;5111928;28;20314;-56
2022/01/11 11:50:58;;;;;;;15.93;8.00;;;3.30;99.90;;;;;;5103115;28;20253;-55
2022/01/11 11:53:30;;;;;;;12.97;7.87;;;3.30;99.90;;;;;;5103241;28;20208;-55
2022/01/11 11:56:21;;;;;;;11.87;8.03;;;3.40;99.90;;;;;;5112547;28;20199;-55
2022/01/11 11:58:52;;;;;;;14.63;8.27;;;3.40;99.90;;;;;;5111474;28;20220;-56
2022/01/11 12:01:41;;;;;;;12.57;9.03;;;3.50;99.90;;;;;;5112560;28;20215;-55
2022/01/11 12:04:15;;;;;;;12.87;9.20;;;3.50;99.90;;;;;;5091663;28;20239;-54
2022/01/11 12:06:44;;;;;;;19.47;10.50;;;3.60;99.90;;;;;;5091708;28;20227;-54
2022/01/11 12:09:15;;;;;;;21.33;12.40;;;3.60;99.90;;;;;;5090998;28;20245;-55
2022/01/11 12:11:46;;;;;;;22.90;12.20;;;3.70;99.90;;;;;;5112104;28;20744;-55
2022/01/11 12:14:32;;;;;;;22.50;11.27;;;3.70;99.90;;;;;;5111090;28;20199;-55
2022/01/11 12:17:24;;;;;;;21.73;11.40;;;3.80;99.90;;;;;;5112109;27;20250;-56
2022/01/11 12:19:53;;;;;;;21.77;11.80;;;3.80;99.90;;;;;;5109765;27;20223;-55
2022/01/11 12:22:23;;;;;;;22.53;12.70;;;3.90;99.90;;;;;;5111743;28;20222;-55
2022/01/11 12:24:55;;;;;;;20.83;11.33;;;3.90;99.90;;;;;;5111431;28;20212;-55
2022/01/11 12:27:24;;;;;;;24.17;12.00;;;4.00;99.90;;;;;;5114078;27;20269;-56
2022/01/11 12:29:59;;;;;;;26.13;13.97;;;4.10;99.90;;;;;;5110751;28;20232;-55
2022/01/11 12:32:31;;;;;;;25.00;13.83;;;4.10;99.90;;;;;;5111567;28;20253;-55
2022/01/11 12:35:06;;;;;;;24.87;14.23;;;4.20;99.90;;;;;;5108276;28;20211;-56
2022/01/11 12:37:38;;;;;;;28.33;14.90;;;4.20;99.90;;;;;;5091119;28;20212;-55
2022/01/11 12:40:25;;;;;;;31.37;14.70;;;4.30;99.90;;;;;;5110227;28;20667;-57
2022/01/11 12:43:00;;;;;;;30.37;16.00;;;4.30;99.90;;;;;;5111004;28;20252;-55
2022/01/11 12:45:58;;;;;;;26.47;15.63;;;4.40;99.90;;;;;;5115921;27;20203;-55
2022/01/11 12:48:56;;;;;;;24.23;15.50;;;4.40;99.90;;;;;;5131752;27;20230;-54
2022/01/11 12:51:31;;;;;;;29.40;16.43;;;4.50;99.90;;;;;;5118311;27;20214;-55
2022/01/11 12:54:18;;;;;;;31.57;15.83;;;4.50;99.90;;;;;;5111341;28;20672;-55
2022/01/11 12:56:48;;;;;;;30.80;16.20;;;4.60;99.90;;;;;;5111561;28;20634;-55
2022/01/11 12:59:18;;;;;;;31.73;16.87;;;4.60;99.90;;;;;;5104113;28;20283;-55
2022/01/11 13:01:47;;;;;;;27.73;15.93;;;4.60;99.90;;;;;;5095426;28;20193;-56
2022/01/11 13:04:17;;;;;;;28.43;16.47;;;4.70;99.90;;;;;;5118089;27;20298;-55
2022/01/11 13:06:45;;;;;;;31.33;17.07;;;4.70;99.90;;;;;;5119613;28;20266;-55